KRIV/RIV METAR and TAF weather

Enter ICAO airport designator
Station Type Date Time Source
KRIV METAR 2019/04/25 17:56 UTC NOAA

KRIV 251756Z AUTO 00000KT 10SM CLR 26/07 A3000 RMK AO2 SLP149 T02640069 10265 20087 53001


Station Type Date Time Source
KRIV Decoded METAR 2019/04/25 17:56 UTC NOAA

Riverside / March Air Force Base, CA, United States (KRIV) 33-54N 117-15W 468M
Apr 25, 2019 - 01:56 PM EDT / 2019.04.25 1756 UTC
Wind: Calm:0
Visibility: 10 mile(s):0
Sky conditions: clear
Temperature: 79.5 F (26.4 C)
Dew Point: 44.4 F (6.9 C)
Relative Humidity: 28%
Pressure (altimeter): 30 in. Hg (1015 hPa)
Pressure tendency: 0.00 inches (0.1 hPa) higher than three hours ago
ob: KRIV 251756Z AUTO 00000KT 10SM CLR 26/07 A3000 RMK AO2 SLP149 T02640069 10265 20087 53001
cycle: 18

Station Type Date Time Source
KRIV TAF 2019/04/25 12:19 UTC NOAA

TAF KRIV 251200Z 2512/2618 VRB06KT 9999 SKC QNH2996INS
BECMG 2519/2520 32012KT 9999 FEW100 SCT280 QNH2991INS
BECMG 2602/2603 VRB06KT 9999 FEW280 QNH2994INS TX29/2521Z TN08/2514Z

Example: see airport list